sensor_id;sensor_type;location;lat;lon;timestamp;pressure;altitude;pressure_sealevel;temperature;humidity
35577;BME280;21680;52.400;16.920;2022-08-01T00:01:12;100439.80;;;17.69;58.72
35577;BME280;21680;52.400;16.920;2022-08-01T00:03:39;100431.13;;;17.64;58.86
35577;BME280;21680;52.400;16.920;2022-08-01T00:06:04;100434.07;;;17.61;58.96
35577;BME280;21680;52.400;16.920;2022-08-01T00:08:30;100423.95;;;17.58;59.06
35577;BME280;21680;52.400;16.920;2022-08-01T00:10:56;100425.16;;;17.53;59.27
35577;BME280;21680;52.400;16.920;2022-08-01T00:13:23;100426.38;;;17.49;59.38
35577;BME280;21680;52.400;16.920;2022-08-01T00:15:51;100424.65;;;17.48;59.52
35577;BME280;21680;52.400;16.920;2022-08-01T00:18:18;100416.86;;;17.44;59.58
35577;BME280;21680;52.400;16.920;2022-08-01T00:20:44;100421.05;;;17.42;59.73
35577;BME280;21680;52.400;16.920;2022-08-01T00:23:10;100416.61;;;17.41;59.81
35577;BME280;21680;52.400;16.920;2022-08-01T00:25:35;100412.02;;;17.36;59.91
35577;BME280;21680;52.400;16.920;2022-08-01T00:28:02;100413.61;;;17.33;60.06
35577;BME280;21680;52.400;16.920;2022-08-01T00:30:28;100409.66;;;17.32;60.16
35577;BME280;21680;52.400;16.920;2022-08-01T00:32:54;100409.89;;;17.29;60.26
35577;BME280;21680;52.400;16.920;2022-08-01T00:35:20;100414.67;;;17.25;60.39
35577;BME280;21680;52.400;16.920;2022-08-01T00:37:46;100412.80;;;17.20;60.54
35577;BME280;21680;52.400;16.920;2022-08-01T00:40:11;100403.05;;;17.17;60.67
35577;BME280;21680;52.400;16.920;2022-08-01T00:42:37;100409.56;;;17.15;60.78
35577;BME280;21680;52.400;16.920;2022-08-01T00:45:04;100408.33;;;17.13;60.93
35577;BME280;21680;52.400;16.920;2022-08-01T00:47:31;100407.58;;;17.11;61.03
35577;BME280;21680;52.400;16.920;2022-08-01T00:49:57;100402.76;;;17.09;61.13
35577;BME280;21680;52.400;16.920;2022-08-01T00:52:23;100404.72;;;17.07;61.18
35577;BME280;21680;52.400;16.920;2022-08-01T00:54:48;100404.45;;;17.05;61.35
35577;BME280;21680;52.400;16.920;2022-08-01T00:57:14;100410.85;;;17.04;61.44
35577;BME280;21680;52.400;16.920;2022-08-01T00:59:40;100407.39;;;17.02;61.50
35577;BME280;21680;52.400;16.920;2022-08-01T01:02:07;100406.52;;;17.01;61.64
35577;BME280;21680;52.400;16.920;2022-08-01T01:04:33;100405.17;;;17.01;61.67
35577;BME280;21680;52.400;16.920;2022-08-01T01:07:21;100403.33;;;17.02;61.80
35577;BME280;21680;52.400;16.920;2022-08-01T01:09:59;100402.95;;;17.01;61.87
35577;BME280;21680;52.400;16.920;2022-08-01T01:12:44;100393.96;;;17.00;62.01
35577;BME280;21680;52.400;16.920;2022-08-01T01:15:33;100395.58;;;17.03;62.07
35577;BME280;21680;52.400;16.920;2022-08-01T01:18:25;100395.58;;;17.03;62.18
35577;BME280;21680;52.400;16.920;2022-08-01T01:27:18;100393.73;;;17.03;62.40
35577;BME280;21680;52.400;16.920;2022-08-01T01:29:58;100391.26;;;17.00;62.41
35577;BME280;21680;52.400;16.920;2022-08-01T01:32:35;100388.28;;;16.98;62.45
35577;BME280;21680;52.400;16.920;2022-08-01T01:35:09;100385.92;;;16.93;62.57
35577;BME280;21680;52.400;16.920;2022-08-01T01:37:39;100380.99;;;16.93;62.64
35577;BME280;21680;52.400;16.920;2022-08-01T01:40:07;100385.92;;;16.93;62.68
35577;BME280;21680;52.400;16.920;2022-08-01T01:42:36;100388.63;;;16.93;62.76
35577;BME280;21680;52.400;16.920;2022-08-01T01:45:05;100383.70;;;16.93;62.78
35577;BME280;21680;52.400;16.920;2022-08-01T01:47:33;100385.16;;;16.91;62.88
35577;BME280;21680;52.400;16.920;2022-08-01T01:50:01;100378.40;;;16.91;62.98
35577;BME280;21680;52.400;16.920;2022-08-01T01:52:29;100376.18;;;16.91;63.01
35577;BME280;21680;52.400;16.920;2022-08-01T01:54:58;100376.18;;;16.91;63.08
35577;BME280;21680;52.400;16.920;2022-08-01T01:57:27;100374.83;;;16.91;63.15
35577;BME280;21680;52.400;16.920;2022-08-01T01:59:54;100375.80;;;16.90;63.22
35577;BME280;21680;52.400;16.920;2022-08-01T02:02:22;100373.96;;;16.90;63.29
35577;BME280;21680;52.400;16.920;2022-08-01T02:04:51;100378.25;;;16.87;63.34
35577;BME280;21680;52.400;16.920;2022-08-01T02:07:20;100373.33;;;16.86;63.39
35577;BME280;21680;52.400;16.920;2022-08-01T02:09:49;100362.61;;;16.85;63.48
35577;BME280;21680;52.400;16.920;2022-08-01T02:12:17;100372.95;;;16.85;63.59
35577;BME280;21680;52.400;16.920;2022-08-01T02:14:46;100371.22;;;16.84;63.56
35577;BME280;21680;52.400;16.920;2022-08-01T02:17:15;100367.53;;;16.85;63.70
35577;BME280;21680;52.400;16.920;2022-08-01T02:19:45;100364.34;;;16.86;63.72
35577;BME280;21680;52.400;16.920;2022-08-01T02:22:34;100369.64;;;16.87;63.80
35577;BME280;21680;52.400;16.920;2022-08-01T02:25:17;100363.36;;;16.87;63.82
35577;BME280;21680;52.400;16.920;2022-08-01T02:28:03;100358.81;;;16.87;63.98
35577;BME280;21680;52.400;16.920;2022-08-01T02:30:33;100362.04;;;16.93;64.05
35577;BME280;21680;52.400;16.920;2022-08-01T02:33:11;100363.55;;;16.97;64.05
35577;BME280;21680;52.400;16.920;2022-08-01T02:35:54;100361.96;;;17.00;64.13
35577;BME280;21680;52.400;16.920;2022-08-01T02:38:23;100359.89;;;17.03;64.16
35577;BME280;21680;52.400;16.920;2022-08-01T02:40:52;100362.86;;;17.06;64.22
35577;BME280;21680;52.400;16.920;2022-08-01T02:43:21;100354.50;;;17.09;64.25
35577;BME280;21680;52.400;16.920;2022-08-01T02:45:50;100352.05;;;17.11;64.28
35577;BME280;21680;52.400;16.920;2022-08-01T02:48:18;100351.45;;;17.13;64.34
35577;BME280;21680;52.400;16.920;2022-08-01T02:50:48;100349.61;;;17.14;64.29
35577;BME280;21680;52.400;16.920;2022-08-01T02:53:18;100353.93;;;17.16;64.37
35577;BME280;21680;52.400;16.920;2022-08-01T02:55:46;100344.68;;;17.13;64.33
35577;BME280;21680;52.400;16.920;2022-08-01T02:58:15;100349.98;;;17.15;64.47
35577;BME280;21680;52.400;16.920;2022-08-01T03:00:45;100347.77;;;17.14;64.44
35577;BME280;21680;52.400;16.920;2022-08-01T03:03:14;100344.08;;;17.15;64.47
35577;BME280;21680;52.400;16.920;2022-08-01T03:05:42;100344.56;;;17.15;64.55
35577;BME280;21680;52.400;16.920;2022-08-01T03:08:10;100339.15;;;17.15;64.58
35577;BME280;21680;52.400;16.920;2022-08-01T03:10:38;100339.52;;;17.16;64.63
35577;BME280;21680;52.400;16.920;2022-08-01T03:13:07;100345.31;;;17.17;64.68
35577;BME280;21680;52.400;16.920;2022-08-01T03:15:37;100337.45;;;17.19;64.71
35577;BME280;21680;52.400;16.920;2022-08-01T03:18:06;100338.57;;;17.23;64.68
35577;BME280;21680;52.400;16.920;2022-08-01T03:20:34;100337.22;;;17.23;64.74
35577;BME280;21680;52.400;16.920;2022-08-01T03:23:05;100331.42;;;17.22;64.72
35577;BME280;21680;52.400;16.920;2022-08-01T03:25:35;100332.78;;;17.22;64.83
35577;BME280;21680;52.400;16.920;2022-08-01T03:28:04;100327.99;;;17.25;64.85
35577;BME280;21680;52.400;16.920;2022-08-01T03:30:31;100329.34;;;17.25;64.92
35577;BME280;21680;52.400;16.920;2022-08-01T03:32:59;100329.23;;;17.27;64.90
35577;BME280;21680;52.400;16.920;2022-08-01T03:35:35;100329.86;;;17.30;64.90
35577;BME280;21680;52.400;16.920;2022-08-01T03:38:08;100324.33;;;17.32;64.82
35577;BME280;21680;52.400;16.920;2022-08-01T03:40:41;100326.66;;;17.31;64.88
35577;BME280;21680;52.400;16.920;2022-08-01T03:43:32;100331.59;;;17.31;64.91
35577;BME280;21680;52.400;16.920;2022-08-01T03:46:11;100324.70;;;17.33;64.94
35577;BME280;21680;52.400;16.920;2022-08-01T03:48:43;100323.84;;;17.32;64.91
35577;BME280;21680;52.400;16.920;2022-08-01T03:51:14;100330.61;;;17.32;64.98
35577;BME280;21680;52.400;16.920;2022-08-01T03:53:42;100324.44;;;17.30;65.00
35577;BME280;21680;52.400;16.920;2022-08-01T03:56:09;100333.31;;;17.32;65.10
35577;BME280;21680;52.400;16.920;2022-08-01T03:58:38;100323.72;;;17.34;65.14
35577;BME280;21680;52.400;16.920;2022-08-01T04:01:05;100325.33;;;17.36;65.12
35577;BME280;21680;52.400;16.920;2022-08-01T04:03:32;100323.48;;;17.37;65.20
35577;BME280;21680;52.400;16.920;2022-08-01T04:05:59;100319.80;;;17.38;65.23
35577;BME280;21680;52.400;16.920;2022-08-01T04:08:36;100321.52;;;17.39;65.20
35577;BME280;21680;52.400;16.920;2022-08-01T04:11:02;100322.73;;;17.35;65.21
35577;BME280;21680;52.400;16.920;2022-08-01T04:13:30;100322.97;;;17.32;65.26
35577;BME280;21680;52.400;16.920;2022-08-01T04:15:56;100324.33;;;17.32;65.46
35577;BME280;21680;52.400;16.920;2022-08-01T04:18:22;100325.07;;;17.34;65.48
35577;BME280;21680;52.400;16.920;2022-08-01T04:20:48;100326.42;;;17.34;65.43
35577;BME280;21680;52.400;16.920;2022-08-01T04:23:16;100323.84;;;17.32;65.58
35577;BME280;21680;52.400;16.920;2022-08-01T04:25:44;100325.45;;;17.35;65.62
35577;BME280;21680;52.400;16.920;2022-08-01T04:28:13;100321.76;;;17.36;65.71
35577;BME280;21680;52.400;16.920;2022-08-01T04:30:43;100328.78;;;17.38;65.71
35577;BME280;21680;52.400;16.920;2022-08-01T04:33:13;100324.11;;;17.40;65.89
35577;BME280;21680;52.400;16.920;2022-08-01T04:35:44;100326.09;;;17.44;65.81
35577;BME280;21680;52.400;16.920;2022-08-01T04:38:14;100322.28;;;17.46;65.85
35577;BME280;21680;52.400;16.920;2022-08-01T04:40:42;100328.22;;;17.51;65.91
35577;BME280;21680;52.400;16.920;2022-08-01T04:43:08;100319.73;;;17.56;66.03
35577;BME280;21680;52.400;16.920;2022-08-01T04:45:35;100318.26;;;17.58;66.05
35577;BME280;21680;52.400;16.920;2022-08-01T04:48:02;100318.14;;;17.59;65.98
35577;BME280;21680;52.400;16.920;2022-08-01T04:50:34;100314.56;;;17.59;66.03
35577;BME280;21680;52.400;16.920;2022-08-01T04:53:02;100313.46;;;17.61;66.02
35577;BME280;21680;52.400;16.920;2022-08-01T04:55:31;100311.85;;;17.59;66.08
35577;BME280;21680;52.400;16.920;2022-08-01T04:57:58;100319.73;;;17.56;66.01
35577;BME280;21680;52.400;16.920;2022-08-01T05:00:24;100314.17;;;17.52;66.17
35577;BME280;21680;52.400;16.920;2022-08-01T05:02:50;100310.86;;;17.54;66.27
35577;BME280;21680;52.400;16.920;2022-08-01T05:05:16;100315.55;;;17.58;66.28
35577;BME280;21680;52.400;16.920;2022-08-01T05:07:41;100313.70;;;17.58;66.28
35577;BME280;21680;52.400;16.920;2022-08-01T05:10:08;100324.05;;;17.59;66.40
35577;BME280;21680;52.400;16.920;2022-08-01T05:12:34;100323.32;;;17.62;66.38
35577;BME280;21680;52.400;16.920;2022-08-01T05:15:01;100331.08;;;17.61;66.42
35577;BME280;21680;52.400;16.920;2022-08-01T05:17:27;100319.75;;;17.62;66.39
35577;BME280;21680;52.400;16.920;2022-08-01T05:19:53;100319.98;;;17.59;66.51
35577;BME280;21680;52.400;16.920;2022-08-01T05:22:19;100320.36;;;17.60;66.61
35577;BME280;21680;52.400;16.920;2022-08-01T05:24:45;100320.00;;;17.64;66.61
35577;BME280;21680;52.400;16.920;2022-08-01T05:27:12;100322.76;;;17.70;66.72
35577;BME280;21680;52.400;16.920;2022-08-01T05:29:39;100320.92;;;17.76;66.75
35577;BME280;21680;52.400;16.920;2022-08-01T05:32:06;100325.73;;;17.78;66.69
35577;BME280;21680;52.400;16.920;2022-08-01T05:34:31;100326.97;;;17.79;66.71
35577;BME280;21680;52.400;16.920;2022-08-01T05:36:58;100330.05;;;17.80;66.70
35577;BME280;21680;52.400;16.920;2022-08-01T05:39:24;100337.08;;;17.83;66.80
35577;BME280;21680;52.400;16.920;2022-08-01T05:41:50;100327.72;;;17.87;66.86
35577;BME280;21680;52.400;16.920;2022-08-01T05:44:16;100323.05;;;17.89;66.78
35577;BME280;21680;52.400;16.920;2022-08-01T05:46:42;100321.44;;;17.87;66.81
35577;BME280;21680;52.400;16.920;2022-08-01T05:49:08;100319.34;;;17.84;66.82
35577;BME280;21680;52.400;16.920;2022-08-01T05:51:34;100317.98;;;17.84;66.97
35577;BME280;21680;52.400;16.920;2022-08-01T05:54:00;100321.31;;;17.88;66.96
35577;BME280;21680;52.400;16.920;2022-08-01T05:56:26;100316.63;;;17.90;66.97
35577;BME280;21680;52.400;16.920;2022-08-01T05:58:52;100323.41;;;17.90;66.93
35577;BME280;21680;52.400;16.920;2022-08-01T06:01:18;100319.47;;;17.89;66.98
35577;BME280;21680;52.400;16.920;2022-08-01T06:03:45;100321.80;;;17.88;67.03
35577;BME280;21680;52.400;16.920;2022-08-01T06:06:11;100324.16;;;17.92;67.18
35577;BME280;21680;52.400;16.920;2022-08-01T06:08:39;100325.15;;;17.97;67.16
35577;BME280;21680;52.400;16.920;2022-08-01T06:11:06;100327.12;;;18.00;67.22
35577;BME280;21680;52.400;16.920;2022-08-01T06:13:34;100323.30;;;18.03;67.17
35577;BME280;21680;52.400;16.920;2022-08-01T06:15:59;100330.95;;;18.09;67.21
35577;BME280;21680;52.400;16.920;2022-08-01T06:18:25;100327.75;;;18.09;67.19
35577;BME280;21680;52.400;16.920;2022-08-01T06:20:51;100328.62;;;18.15;67.26
35577;BME280;21680;52.400;16.920;2022-08-01T06:23:17;100332.81;;;18.20;67.25
35577;BME280;21680;52.400;16.920;2022-08-01T06:25:43;100334.27;;;18.24;67.35
35577;BME280;21680;52.400;16.920;2022-08-01T06:28:09;100327.48;;;18.35;67.31
35577;BME280;21680;52.400;16.920;2022-08-01T06:30:35;100334.14;;;18.36;67.24
35577;BME280;21680;52.400;16.920;2022-08-01T06:33:01;100330.94;;;18.42;67.20
35577;BME280;21680;52.400;16.920;2022-08-01T06:35:28;100330.93;;;18.48;67.23
35577;BME280;21680;52.400;16.920;2022-08-01T06:37:56;100329.20;;;18.53;67.13
35577;BME280;21680;52.400;16.920;2022-08-01T06:40:23;100332.89;;;18.57;67.11
35577;BME280;21680;52.400;16.920;2022-08-01T06:42:49;100332.64;;;18.60;67.06
35577;BME280;21680;52.400;16.920;2022-08-01T06:45:16;100333.91;;;18.62;67.01
35577;BME280;21680;52.400;16.920;2022-08-01T06:47:43;100335.77;;;18.61;67.00
35577;BME280;21680;52.400;16.920;2022-08-01T06:50:12;100347.48;;;18.62;66.98
35577;BME280;21680;52.400;16.920;2022-08-01T06:52:40;100348.34;;;18.62;67.03
35577;BME280;21680;52.400;16.920;2022-08-01T06:55:07;100350.56;;;18.63;66.96
35577;BME280;21680;52.400;16.920;2022-08-01T06:57:36;100342.27;;;18.59;66.95
35577;BME280;21680;52.400;16.920;2022-08-01T07:00:04;100340.79;;;18.60;66.96
35577;BME280;21680;52.400;16.920;2022-08-01T07:02:34;100338.48;;;18.61;67.00
35577;BME280;21680;52.400;16.920;2022-08-01T07:05:01;100342.30;;;18.64;66.94
35577;BME280;21680;52.400;16.920;2022-08-01T07:07:29;100343.16;;;18.65;66.86
35577;BME280;21680;52.400;16.920;2022-08-01T07:09:56;100345.87;;;18.65;66.82
35577;BME280;21680;52.400;16.920;2022-08-01T07:12:22;100352.55;;;18.61;66.82
35577;BME280;21680;52.400;16.920;2022-08-01T07:14:47;100348.47;;;18.61;66.93
35577;BME280;21680;52.400;16.920;2022-08-01T07:17:13;100345.27;;;18.61;66.85
35577;BME280;21680;52.400;16.920;2022-08-01T07:19:39;100344.98;;;18.59;66.82
35577;BME280;21680;52.400;16.920;2022-08-01T07:22:05;100349.67;;;18.57;66.85
35577;BME280;21680;52.400;16.920;2022-08-01T07:24:31;100346.34;;;18.59;66.97
35577;BME280;21680;52.400;16.920;2022-08-01T07:26:57;100348.59;;;18.65;66.92
35577;BME280;21680;52.400;16.920;2022-08-01T07:29:24;100344.86;;;18.60;66.95
35577;BME280;21680;52.400;16.920;2022-08-01T07:31:55;100350.94;;;18.64;66.92
35577;BME280;21680;52.400;16.920;2022-08-01T07:34:24;100350.31;;;18.66;66.97
35577;BME280;21680;52.400;16.920;2022-08-01T07:36:51;100355.13;;;18.68;66.97
35577;BME280;21680;52.400;16.920;2022-08-01T07:39:18;100349.20;;;18.68;66.94
35577;BME280;21680;52.400;16.920;2022-08-01T07:41:44;100353.77;;;18.73;67.02
35577;BME280;21680;52.400;16.920;2022-08-01T07:44:10;100348.45;;;18.77;67.01
35577;BME280;21680;52.400;16.920;2022-08-01T07:46:36;100353.75;;;18.85;66.99
35577;BME280;21680;52.400;16.920;2022-08-01T07:49:02;100356.70;;;18.87;66.96
35577;BME280;21680;52.400;16.920;2022-08-01T07:51:28;100359.53;;;18.91;66.99
35577;BME280;21680;52.400;16.920;2022-08-01T07:53:53;100349.78;;;18.94;66.92
35577;BME280;21680;52.400;16.920;2022-08-01T07:56:19;100353.23;;;18.96;67.00
35577;BME280;21680;52.400;16.920;2022-08-01T07:58:45;100356.06;;;19.00;66.98
35577;BME280;21680;52.400;16.920;2022-08-01T08:01:13;100357.53;;;19.04;66.92
35577;BME280;21680;52.400;16.920;2022-08-01T08:03:39;100354.56;;;19.07;66.93
35577;BME280;21680;52.400;16.920;2022-08-01T08:06:05;100360.59;;;19.11;66.98
35577;BME280;21680;52.400;16.920;2022-08-01T08:08:31;100355.27;;;19.15;66.98
35577;BME280;21680;52.400;16.920;2022-08-01T08:10:57;100354.52;;;19.19;66.97
35577;BME280;21680;52.400;16.920;2022-08-01T08:13:22;100366.23;;;19.25;67.00
35577;BME280;21680;52.400;16.920;2022-08-01T08:15:48;100366.72;;;19.30;66.95
35577;BME280;21680;52.400;16.920;2022-08-01T08:18:15;100366.20;;;19.36;67.00
35577;BME280;21680;52.400;16.920;2022-08-01T08:20:41;100371.22;;;19.46;66.95
35577;BME280;21680;52.400;16.920;2022-08-01T08:23:07;100374.42;;;19.57;66.89
35577;BME280;21680;52.400;16.920;2022-08-01T08:25:35;100373.77;;;19.64;66.75
35577;BME280;21680;52.400;16.920;2022-08-01T08:28:02;100376.83;;;19.71;66.69
35577;BME280;21680;52.400;16.920;2022-08-01T08:30:29;100372.59;;;19.78;66.56
35577;BME280;21680;52.400;16.920;2022-08-01T08:32:55;100378.27;;;19.81;66.35
35577;BME280;21680;52.400;16.920;2022-08-01T08:35:20;100377.73;;;19.87;66.32
35577;BME280;21680;52.400;16.920;2022-08-01T08:37:47;100377.08;;;19.94;66.05
35577;BME280;21680;52.400;16.920;2022-08-01T08:40:14;100374.91;;;20.03;66.02
35577;BME280;21680;52.400;16.920;2022-08-01T08:42:40;100378.12;;;20.24;66.01
35577;BME280;21680;52.400;16.920;2022-08-01T08:45:07;100370.31;;;20.46;65.87
35577;BME280;21680;52.400;16.920;2022-08-01T08:47:35;100370.53;;;20.63;65.58
35577;BME280;21680;52.400;16.920;2022-08-01T08:50:04;100374.16;;;20.83;65.58
35577;BME280;21680;52.400;16.920;2022-08-01T08:52:33;100374.28;;;21.06;65.34
35577;BME280;21680;52.400;16.920;2022-08-01T08:55:01;100369.92;;;21.10;64.92
35577;BME280;21680;52.400;16.920;2022-08-01T08:57:27;100371.08;;;21.17;64.78
35577;BME280;21680;52.400;16.920;2022-08-01T08:59:53;100358.78;;;21.22;64.55
35577;BME280;21680;52.400;16.920;2022-08-01T09:02:21;100370.56;;;21.42;64.38
35577;BME280;21680;52.400;16.920;2022-08-01T09:04:48;100378.04;;;21.59;64.26
35577;BME280;21680;52.400;16.920;2022-08-01T09:07:15;100375.95;;;21.77;63.89
35577;BME280;21680;52.400;16.920;2022-08-01T09:09:40;100379.03;;;21.87;63.70
35577;BME280;21680;52.400;16.920;2022-08-01T09:12:06;100373.72;;;21.86;63.33
35577;BME280;21680;52.400;16.920;2022-08-01T09:14:32;100382.62;;;21.88;63.26
35577;BME280;21680;52.400;16.920;2022-08-01T09:17:05;100376.29;;;21.97;63.05
35577;BME280;21680;52.400;16.920;2022-08-01T09:19:40;100369.55;;;21.91;62.56
35577;BME280;21680;52.400;16.920;2022-08-01T09:22:16;100372.34;;;21.95;62.57
35577;BME280;21680;52.400;16.920;2022-08-01T09:25:05;100373.22;;;22.06;62.37
35577;BME280;21680;52.400;16.920;2022-08-01T09:27:34;100368.75;;;22.14;62.23
35577;BME280;21680;52.400;16.920;2022-08-01T09:30:15;100366.20;;;22.26;61.99
35577;BME280;21680;52.400;16.920;2022-08-01T09:33:02;100371.27;;;22.35;61.82
35577;BME280;21680;52.400;16.920;2022-08-01T09:35:34;100375.09;;;22.52;61.61
35577;BME280;21680;52.400;16.920;2022-08-01T09:38:18;100371.67;;;22.63;61.31
35577;BME280;21680;52.400;16.920;2022-08-01T09:40:59;100368.95;;;22.77;61.23
35577;BME280;21680;52.400;16.920;2022-08-01T09:43:28;100364.32;;;22.87;61.00
35577;BME280;21680;52.400;16.920;2022-08-01T09:45:55;100357.98;;;23.01;60.95
35577;BME280;21680;52.400;16.920;2022-08-01T09:48:23;100362.23;;;23.13;60.42
35577;BME280;21680;52.400;16.920;2022-08-01T09:50:50;100358.94;;;23.09;60.09
35577;BME280;21680;52.400;16.920;2022-08-01T09:53:18;100357.77;;;23.12;60.00
35577;BME280;21680;52.400;16.920;2022-08-01T09:55:45;100358.48;;;23.14;59.92
35577;BME280;21680;52.400;16.920;2022-08-01T09:58:11;100357.25;;;23.26;59.92
35577;BME280;21680;52.400;16.920;2022-08-01T10:00:39;100350.62;;;23.50;59.92
35577;BME280;21680;52.400;16.920;2022-08-01T10:03:23;100345.27;;;23.80;59.75
35577;BME280;21680;52.400;16.920;2022-08-01T10:05:50;100348.20;;;24.05;59.45
35577;BME280;21680;52.400;16.920;2022-08-01T10:08:19;100353.09;;;24.19;58.94
35577;BME280;21680;52.400;16.920;2022-08-01T10:11:06;100339.17;;;24.34;58.79
35577;BME280;21680;52.400;16.920;2022-08-01T10:13:34;100345.64;;;24.59;58.12
35577;BME280;21680;52.400;16.920;2022-08-01T10:16:00;100334.73;;;24.71;57.61
35577;BME280;21680;52.400;16.920;2022-08-01T10:18:28;100332.03;;;24.79;57.51
35577;BME280;21680;52.400;16.920;2022-08-01T10:20:57;100339.09;;;24.90;57.42
35577;BME280;21680;52.400;16.920;2022-08-01T10:23:26;100334.48;;;24.95;56.98
35577;BME280;21680;52.400;16.920;2022-08-01T10:25:55;100336.06;;;24.97;56.70
35577;BME280;21680;52.400;16.920;2022-08-01T10:28:25;100339.33;;;25.01;56.40
35577;BME280;21680;52.400;16.920;2022-08-01T10:30:51;100331.81;;;25.07;56.13
35577;BME280;21680;52.400;16.920;2022-08-01T10:33:17;100333.37;;;25.13;55.96
35577;BME280;21680;52.400;16.920;2022-08-01T10:35:45;100338.53;;;25.20;55.71
35577;BME280;21680;52.400;16.920;2022-08-01T10:38:11;100337.00;;;25.30;55.47
35577;BME280;21680;52.400;16.920;2022-08-01T10:40:40;100330.48;;;25.27;55.37
35577;BME280;21680;52.400;16.920;2022-08-01T10:43:10;100332.88;;;25.22;55.29
35577;BME280;21680;52.400;16.920;2022-08-01T10:45:36;100338.70;;;25.19;55.21
35577;BME280;21680;52.400;16.920;2022-08-01T10:48:08;100338.67;;;25.11;54.99
35577;BME280;21680;52.400;16.920;2022-08-01T10:50:53;100336.58;;;24.97;54.75
35577;BME280;21680;52.400;16.920;2022-08-01T10:53:24;100343.69;;;24.81;54.54
35577;BME280;21680;52.400;16.920;2022-08-01T10:55:58;100343.97;;;24.66;54.66
35577;BME280;21680;52.400;16.920;2022-08-01T10:58:35;100339.45;;;24.53;54.87
35577;BME280;21680;52.400;16.920;2022-08-01T11:01:27;100339.42;;;24.49;55.12
35577;BME280;21680;52.400;16.920;2022-08-01T11:04:19;100345.97;;;24.56;55.22
35577;BME280;21680;52.400;16.920;2022-08-01T11:06:39;100349.06;;;24.57;55.37
35577;BME280;21680;52.400;16.920;2022-08-01T11:12:04;100351.12;;;24.59;55.45
35577;BME280;21680;52.400;16.920;2022-08-01T11:17:34;100351.78;;;24.53;55.72
35577;BME280;21680;52.400;16.920;2022-08-01T11:20:16;100347.36;;;24.60;55.82
35577;BME280;21680;52.400;16.920;2022-08-01T11:28:18;100353.58;;;25.08;55.75
35577;BME280;21680;52.400;16.920;2022-08-01T11:30:47;100353.58;;;25.08;55.63
35577;BME280;21680;52.400;16.920;2022-08-01T11:33:17;100357.88;;;25.15;55.65
35577;BME280;21680;52.400;16.920;2022-08-01T11:41:33;100353.62;;;25.24;55.17
35577;BME280;21680;52.400;16.920;2022-08-01T11:44:04;100350.56;;;25.36;55.32
35577;BME280;21680;52.400;16.920;2022-08-01T11:46:49;100349.39;;;25.59;55.20
35577;BME280;21680;52.400;16.920;2022-08-01T11:52:24;100356.63;;;25.68;54.58
35577;BME280;21680;52.400;16.920;2022-08-01T11:54:57;100355.09;;;25.73;54.07
35577;BME280;21680;52.400;16.920;2022-08-01T11:57:31;100361.58;;;25.64;54.23
35577;BME280;21680;52.400;16.920;2022-08-01T12:00:00;100362.92;;;25.44;54.24
35577;BME280;21680;52.400;16.920;2022-08-01T12:02:30;100363.59;;;25.38;54.37
35577;BME280;21680;52.400;16.920;2022-08-01T12:05:05;100366.34;;;25.38;54.16
35577;BME280;21680;52.400;16.920;2022-08-01T12:07:40;100359.79;;;25.22;54.24
35577;BME280;21680;52.400;16.920;2022-08-01T12:10:16;100368.53;;;25.22;54.38
35577;BME280;21680;52.400;16.920;2022-08-01T12:12:46;100368.20;;;25.29;54.36
35577;BME280;21680;52.400;16.920;2022-08-01T12:15:14;100374.38;;;25.31;54.33
35577;BME280;21680;52.400;16.920;2022-08-01T12:17:44;100364.95;;;25.34;54.26
35577;BME280;21680;52.400;16.920;2022-08-01T12:20:15;100368.91;;;25.35;54.36
35577;BME280;21680;52.400;16.920;2022-08-01T12:22:43;100369.43;;;25.39;54.11
35577;BME280;21680;52.400;16.920;2022-08-01T12:25:15;100371.83;;;25.38;54.17
35577;BME280;21680;52.400;16.920;2022-08-01T12:27:44;100368.39;;;25.36;53.93
35577;BME280;21680;52.400;16.920;2022-08-01T12:30:13;100367.70;;;25.30;54.21
35577;BME280;21680;52.400;16.920;2022-08-01T12:32:41;100370.62;;;25.36;54.34
35577;BME280;21680;52.400;16.920;2022-08-01T12:35:15;100361.55;;;25.48;54.36
35577;BME280;21680;52.400;16.920;2022-08-01T12:37:53;100354.54;;;25.62;54.42
35577;BME280;21680;52.400;16.920;2022-08-01T12:40:26;100349.95;;;25.78;54.31
35577;BME280;21680;52.400;16.920;2022-08-01T12:43:02;100348.40;;;25.84;54.17
35577;BME280;21680;52.400;16.920;2022-08-01T12:45:30;100357.32;;;25.90;54.17
35577;BME280;21680;52.400;16.920;2022-08-01T12:47:58;100365.22;;;25.85;53.84
35577;BME280;21680;52.400;16.920;2022-08-01T12:50:30;100366.93;;;25.70;53.85
35577;BME280;21680;52.400;16.920;2022-08-01T12:52:56;100360.67;;;25.31;54.20
35577;BME280;21680;52.400;16.920;2022-08-01T12:55:24;100358.56;;;25.13;54.57
35577;BME280;21680;52.400;16.920;2022-08-01T12:58:10;100356.31;;;25.04;54.96
35577;BME280;21680;52.400;16.920;2022-08-01T13:00:38;100352.40;;;25.15;55.24
35577;BME280;21680;52.400;16.920;2022-08-01T13:03:13;100355.52;;;25.32;55.51
35577;BME280;21680;52.400;16.920;2022-08-01T13:05:52;100357.09;;;25.47;55.63
35577;BME280;21680;52.400;16.920;2022-08-01T13:08:30;100363.28;;;25.53;55.76
35577;BME280;21680;52.400;16.920;2022-08-01T13:11:11;100364.18;;;25.66;55.91
35577;BME280;21680;52.400;16.920;2022-08-01T13:13:50;100368.61;;;25.63;56.02
35577;BME280;21680;52.400;16.920;2022-08-01T13:16:18;100367.95;;;25.69;56.08
35577;BME280;21680;52.400;16.920;2022-08-01T13:18:54;100367.95;;;25.69;56.04